sensor_id;sensor_type;location;lat;lon;timestamp;pressure;altitude;pressure_sealevel;temperature;humidity
71907;BME280;59781;52.090;5.030;2023-08-31T00:00:44;100790.94;;;12.14;100.00
71907;BME280;59781;52.090;5.030;2023-08-31T00:03:12;100788.22;;;12.52;100.00
71907;BME280;59781;52.090;5.030;2023-08-31T00:05:41;100784.19;;;12.48;100.00
71907;BME280;59781;52.090;5.030;2023-08-31T00:08:09;100784.59;;;12.07;100.00
71907;BME280;59781;52.090;5.030;2023-08-31T00:10:36;100786.63;;;12.05;100.00
71907;BME280;59781;52.090;5.030;2023-08-31T00:13:03;100782.53;;;12.09;100.00
71907;BME280;59781;52.090;5.030;2023-08-31T00:15:30;100782.63;;;12.01;100.00
71907;BME280;59781;52.090;5.030;2023-08-31T00:17:58;100778.66;;;12.12;100.00
71907;BME280;59781;52.090;5.030;2023-08-31T00:20:24;100770.63;;;12.18;100.00
71907;BME280;59781;52.090;5.030;2023-08-31T00:22:51;100782.44;;;12.02;100.00
71907;BME280;59781;52.090;5.030;2023-08-31T00:25:17;100773.84;;;12.22;100.00
71907;BME280;59781;52.090;5.030;2023-08-31T00:27:43;100770.47;;;12.20;100.00
71907;BME280;59781;52.090;5.030;2023-08-31T00:30:10;100776.47;;;12.07;100.00
71907;BME280;59781;52.090;5.030;2023-08-31T00:32:37;100781.03;;;12.29;100.00
71907;BME280;59781;52.090;5.030;2023-08-31T00:35:05;100768.28;;;12.53;100.00
71907;BME280;59781;52.090;5.030;2023-08-31T00:37:31;100778.06;;;12.39;100.00
71907;BME280;59781;52.090;5.030;2023-08-31T00:39:56;100784.69;;;12.51;100.00
71907;BME280;59781;52.090;5.030;2023-08-31T00:42:22;100783.19;;;12.63;100.00
71907;BME280;59781;52.090;5.030;2023-08-31T00:44:50;100787.38;;;12.66;100.00
71907;BME280;59781;52.090;5.030;2023-08-31T00:47:15;100786.63;;;12.87;100.00
71907;BME280;59781;52.090;5.030;2023-08-31T00:49:42;100780.53;;;13.14;100.00
71907;BME280;59781;52.090;5.030;2023-08-31T00:52:08;100776.53;;;12.96;100.00
71907;BME280;59781;52.090;5.030;2023-08-31T00:54:35;100777.78;;;12.93;100.00
71907;BME280;59781;52.090;5.030;2023-08-31T00:57:02;100781.06;;;12.88;100.00
71907;BME280;59781;52.090;5.030;2023-08-31T00:59:29;100786.72;;;12.93;100.00
71907;BME280;59781;52.090;5.030;2023-08-31T01:02:17;100781.38;;;13.15;100.00
71907;BME280;59781;52.090;5.030;2023-08-31T01:05:14;100785.19;;;13.06;100.00
71907;BME280;59781;52.090;5.030;2023-08-31T01:13:51;100780.19;;;12.73;100.00
71907;BME280;59781;52.090;5.030;2023-08-31T01:16:24;100768.66;;;12.79;100.00
71907;BME280;59781;52.090;5.030;2023-08-31T01:18:52;100772.75;;;12.75;100.00
71907;BME280;59781;52.090;5.030;2023-08-31T01:21:30;100776.09;;;12.92;100.00
71907;BME280;59781;52.090;5.030;2023-08-31T01:24:04;100775.16;;;12.85;100.00
71907;BME280;59781;52.090;5.030;2023-08-31T01:26:32;100779.06;;;12.97;100.00
71907;BME280;59781;52.090;5.030;2023-08-31T01:28:57;100769.75;;;12.85;100.00
71907;BME280;59781;52.090;5.030;2023-08-31T01:31:24;100767.78;;;12.93;100.00
71907;BME280;59781;52.090;5.030;2023-08-31T01:33:50;100774.78;;;12.88;100.00
71907;BME280;59781;52.090;5.030;2023-08-31T01:39:00;100763.13;;;13.02;100.00
71907;BME280;59781;52.090;5.030;2023-08-31T01:41:56;100768.81;;;12.92;100.00
71907;BME280;59781;52.090;5.030;2023-08-31T01:44:28;100754.47;;;12.92;100.00
71907;BME280;59781;52.090;5.030;2023-08-31T01:47:03;100767.34;;;12.75;100.00
71907;BME280;59781;52.090;5.030;2023-08-31T01:49:39;100762.97;;;12.89;100.00
71907;BME280;59781;52.090;5.030;2023-08-31T01:52:06;100761.44;;;12.86;100.00
71907;BME280;59781;52.090;5.030;2023-08-31T01:54:32;100765.97;;;12.79;100.00
71907;BME280;59781;52.090;5.030;2023-08-31T01:56:59;100770.25;;;12.88;100.00
71907;BME280;59781;52.090;5.030;2023-08-31T01:59:25;100763.25;;;12.79;100.00
71907;BME280;59781;52.090;5.030;2023-08-31T02:01:52;100766.59;;;12.81;100.00
71907;BME280;59781;52.090;5.030;2023-08-31T02:04:17;100787.09;;;12.76;100.00
71907;BME280;59781;52.090;5.030;2023-08-31T02:06:43;100779.91;;;12.68;100.00
71907;BME280;59781;52.090;5.030;2023-08-31T02:09:09;100778.16;;;12.75;100.00
71907;BME280;59781;52.090;5.030;2023-08-31T02:11:34;100776.09;;;12.77;100.00
71907;BME280;59781;52.090;5.030;2023-08-31T02:14:05;100765.09;;;12.93;100.00
71907;BME280;59781;52.090;5.030;2023-08-31T02:16:33;100770.78;;;12.84;100.00
71907;BME280;59781;52.090;5.030;2023-08-31T02:18:59;100782.34;;;12.78;100.00
71907;BME280;59781;52.090;5.030;2023-08-31T02:21:25;100772.94;;;12.74;100.00
71907;BME280;59781;52.090;5.030;2023-08-31T02:23:52;100770.63;;;12.71;100.00
71907;BME280;59781;52.090;5.030;2023-08-31T02:26:17;100764.53;;;12.83;100.00
71907;BME280;59781;52.090;5.030;2023-08-31T02:28:45;100767.72;;;12.72;100.00
71907;BME280;59781;52.090;5.030;2023-08-31T02:31:11;100761.56;;;12.78;100.00
71907;BME280;59781;52.090;5.030;2023-08-31T02:33:39;100769.13;;;12.53;100.00
71907;BME280;59781;52.090;5.030;2023-08-31T02:36:04;100769.09;;;12.68;100.00
71907;BME280;59781;52.090;5.030;2023-08-31T02:38:30;100766.13;;;12.78;100.00
71907;BME280;59781;52.090;5.030;2023-08-31T02:40:56;100764.72;;;12.67;100.00
71907;BME280;59781;52.090;5.030;2023-08-31T02:43:21;100763.41;;;12.78;100.00
71907;BME280;59781;52.090;5.030;2023-08-31T02:45:48;100766.03;;;12.86;100.00
71907;BME280;59781;52.090;5.030;2023-08-31T02:48:14;100765.97;;;12.79;100.00
71907;BME280;59781;52.090;5.030;2023-08-31T02:50:41;100768.47;;;12.66;100.00
71907;BME280;59781;52.090;5.030;2023-08-31T02:53:06;100759.03;;;12.77;100.00
71907;BME280;59781;52.090;5.030;2023-08-31T02:55:33;100765.69;;;12.59;100.00
71907;BME280;59781;52.090;5.030;2023-08-31T02:57:59;100762.03;;;12.67;100.00
71907;BME280;59781;52.090;5.030;2023-08-31T03:00:25;100761.19;;;12.67;100.00
71907;BME280;59781;52.090;5.030;2023-08-31T03:02:51;100752.16;;;12.74;100.00
71907;BME280;59781;52.090;5.030;2023-08-31T03:05:19;100751.97;;;12.61;100.00
71907;BME280;59781;52.090;5.030;2023-08-31T03:07:46;100755.50;;;12.76;100.00
71907;BME280;59781;52.090;5.030;2023-08-31T03:10:13;100749.75;;;12.79;100.00
71907;BME280;59781;52.090;5.030;2023-08-31T03:12:38;100746.19;;;12.64;100.00
71907;BME280;59781;52.090;5.030;2023-08-31T03:15:06;100746.84;;;12.66;100.00
71907;BME280;59781;52.090;5.030;2023-08-31T03:17:32;100758.00;;;12.78;100.00
71907;BME280;59781;52.090;5.030;2023-08-31T03:19:58;100761.25;;;12.88;100.00
71907;BME280;59781;52.090;5.030;2023-08-31T03:22:23;100764.72;;;12.82;100.00
71907;BME280;59781;52.090;5.030;2023-08-31T03:24:49;100766.66;;;12.88;100.00
71907;BME280;59781;52.090;5.030;2023-08-31T03:27:15;100768.81;;;12.92;100.00
71907;BME280;59781;52.090;5.030;2023-08-31T03:29:45;100773.50;;;12.99;100.00
71907;BME280;59781;52.090;5.030;2023-08-31T03:32:11;100777.66;;;12.86;100.00
71907;BME280;59781;52.090;5.030;2023-08-31T03:34:37;100778.41;;;13.10;100.00
71907;BME280;59781;52.090;5.030;2023-08-31T03:37:02;100771.81;;;12.83;100.00
71907;BME280;59781;52.090;5.030;2023-08-31T03:39:28;100777.88;;;13.00;100.00
71907;BME280;59781;52.090;5.030;2023-08-31T03:41:54;100779.44;;;13.09;100.00
71907;BME280;59781;52.090;5.030;2023-08-31T03:44:20;100780.28;;;12.95;100.00
71907;BME280;59781;52.090;5.030;2023-08-31T03:46:49;100783.34;;;13.21;100.00
71907;BME280;59781;52.090;5.030;2023-08-31T03:49:14;100782.59;;;13.12;100.00
71907;BME280;59781;52.090;5.030;2023-08-31T03:51:40;100807.31;;;13.09;100.00
71907;BME280;59781;52.090;5.030;2023-08-31T03:54:06;100815.78;;;13.06;100.00
71907;BME280;59781;52.090;5.030;2023-08-31T03:56:32;100809.53;;;13.06;100.00
71907;BME280;59781;52.090;5.030;2023-08-31T03:59:02;100829.69;;;13.33;100.00
71907;BME280;59781;52.090;5.030;2023-08-31T04:01:29;100812.31;;;13.27;100.00
71907;BME280;59781;52.090;5.030;2023-08-31T04:03:55;100820.53;;;13.34;100.00
71907;BME280;59781;52.090;5.030;2023-08-31T04:06:21;100817.63;;;13.35;100.00
71907;BME280;59781;52.090;5.030;2023-08-31T04:08:47;100815.22;;;13.26;100.00
71907;BME280;59781;52.090;5.030;2023-08-31T04:11:13;100819.88;;;13.32;100.00
71907;BME280;59781;52.090;5.030;2023-08-31T04:13:38;100806.84;;;13.20;100.00
71907;BME280;59781;52.090;5.030;2023-08-31T04:16:05;100805.63;;;13.23;100.00
71907;BME280;59781;52.090;5.030;2023-08-31T04:18:31;100803.84;;;13.30;100.00
71907;BME280;59781;52.090;5.030;2023-08-31T04:20:56;100803.69;;;13.53;100.00
71907;BME280;59781;52.090;5.030;2023-08-31T04:23:24;100811.44;;;13.20;100.00
71907;BME280;59781;52.090;5.030;2023-08-31T04:25:50;100814.66;;;13.15;100.00
71907;BME280;59781;52.090;5.030;2023-08-31T04:28:16;100827.47;;;13.22;100.00
71907;BME280;59781;52.090;5.030;2023-08-31T04:30:42;100832.22;;;13.19;100.00
71907;BME280;59781;52.090;5.030;2023-08-31T04:33:09;100854.69;;;13.20;100.00
71907;BME280;59781;52.090;5.030;2023-08-31T04:35:35;100874.34;;;13.14;100.00
71907;BME280;59781;52.090;5.030;2023-08-31T04:38:01;100874.06;;;13.09;100.00
71907;BME280;59781;52.090;5.030;2023-08-31T04:40:28;100861.28;;;12.88;100.00
71907;BME280;59781;52.090;5.030;2023-08-31T04:42:55;100866.78;;;12.80;100.00
71907;BME280;59781;52.090;5.030;2023-08-31T04:45:20;100866.69;;;12.73;100.00
71907;BME280;59781;52.090;5.030;2023-08-31T04:47:46;100863.25;;;12.79;100.00
71907;BME280;59781;52.090;5.030;2023-08-31T04:50:12;100866.97;;;12.78;100.00
71907;BME280;59781;52.090;5.030;2023-08-31T04:52:37;100870.13;;;12.82;100.00
71907;BME280;59781;52.090;5.030;2023-08-31T04:55:06;100867.81;;;12.79;100.00
71907;BME280;59781;52.090;5.030;2023-08-31T04:57:39;100855.50;;;12.91;100.00
71907;BME280;59781;52.090;5.030;2023-08-31T05:00:05;100855.13;;;12.79;100.00
71907;BME280;59781;52.090;5.030;2023-08-31T05:02:34;100856.59;;;12.67;100.00
71907;BME280;59781;52.090;5.030;2023-08-31T05:05:00;100861.16;;;12.67;100.00
71907;BME280;59781;52.090;5.030;2023-08-31T05:07:26;100857.97;;;12.48;100.00
71907;BME280;59781;52.090;5.030;2023-08-31T05:09:51;100870.75;;;12.54;100.00
71907;BME280;59781;52.090;5.030;2023-08-31T05:12:17;100875.09;;;12.93;100.00
71907;BME280;59781;52.090;5.030;2023-08-31T05:14:43;100872.94;;;12.88;100.00
71907;BME280;59781;52.090;5.030;2023-08-31T05:17:08;100870.22;;;12.74;100.00
71907;BME280;59781;52.090;5.030;2023-08-31T05:19:34;100867.13;;;12.62;100.00
71907;BME280;59781;52.090;5.030;2023-08-31T05:22:00;100873.22;;;12.79;100.00
71907;BME280;59781;52.090;5.030;2023-08-31T05:24:26;100868.84;;;12.92;100.00
71907;BME280;59781;52.090;5.030;2023-08-31T05:26:52;100859.78;;;13.15;100.00
71907;BME280;59781;52.090;5.030;2023-08-31T05:29:17;100861.97;;;13.19;100.00
71907;BME280;59781;52.090;5.030;2023-08-31T05:31:43;100866.13;;;13.52;100.00
71907;BME280;59781;52.090;5.030;2023-08-31T05:34:09;100869.03;;;13.35;100.00
71907;BME280;59781;52.090;5.030;2023-08-31T05:36:36;100884.88;;;13.09;100.00
71907;BME280;59781;52.090;5.030;2023-08-31T05:39:02;100893.25;;;13.14;100.00
71907;BME280;59781;52.090;5.030;2023-08-31T05:41:28;100905.94;;;13.13;100.00
71907;BME280;59781;52.090;5.030;2023-08-31T05:43:54;100896.38;;;13.26;100.00
71907;BME280;59781;52.090;5.030;2023-08-31T05:46:20;100908.94;;;13.04;100.00
71907;BME280;59781;52.090;5.030;2023-08-31T05:48:45;100902.59;;;13.26;100.00
71907;BME280;59781;52.090;5.030;2023-08-31T05:51:11;100900.16;;;13.16;100.00
71907;BME280;59781;52.090;5.030;2023-08-31T05:53:37;100911.84;;;13.32;100.00
71907;BME280;59781;52.090;5.030;2023-08-31T05:56:03;100905.75;;;13.15;100.00
71907;BME280;59781;52.090;5.030;2023-08-31T05:58:33;100909.88;;;13.26;100.00
71907;BME280;59781;52.090;5.030;2023-08-31T06:01:00;100913.88;;;13.15;100.00
71907;BME280;59781;52.090;5.030;2023-08-31T06:03:27;100923.22;;;13.27;100.00
71907;BME280;59781;52.090;5.030;2023-08-31T06:05:53;100924.53;;;13.46;100.00
71907;BME280;59781;52.090;5.030;2023-08-31T06:08:18;100922.66;;;13.61;100.00
71907;BME280;59781;52.090;5.030;2023-08-31T06:10:44;100926.66;;;13.36;100.00
71907;BME280;59781;52.090;5.030;2023-08-31T06:13:10;100924.16;;;13.34;100.00
71907;BME280;59781;52.090;5.030;2023-08-31T06:15:35;100933.50;;;13.32;100.00
71907;BME280;59781;52.090;5.030;2023-08-31T06:18:01;100937.03;;;13.47;100.00
71907;BME280;59781;52.090;5.030;2023-08-31T06:20:26;100937.59;;;13.42;100.00
71907;BME280;59781;52.090;5.030;2023-08-31T06:22:52;100932.94;;;13.51;100.00
71907;BME280;59781;52.090;5.030;2023-08-31T06:25:18;100927.47;;;13.81;100.00
71907;BME280;59781;52.090;5.030;2023-08-31T06:27:44;100927.41;;;13.59;100.00
71907;BME280;59781;52.090;5.030;2023-08-31T06:30:11;100924.97;;;13.64;100.00
71907;BME280;59781;52.090;5.030;2023-08-31T06:32:45;100935.47;;;13.89;100.00
71907;BME280;59781;52.090;5.030;2023-08-31T06:35:13;100931.84;;;13.82;100.00
71907;BME280;59781;52.090;5.030;2023-08-31T06:37:41;100937.38;;;13.73;100.00
71907;BME280;59781;52.090;5.030;2023-08-31T06:40:08;100940.91;;;13.89;100.00
71907;BME280;59781;52.090;5.030;2023-08-31T06:42:38;100936.03;;;13.84;100.00
71907;BME280;59781;52.090;5.030;2023-08-31T06:45:06;100941.31;;;13.71;100.00
71907;BME280;59781;52.090;5.030;2023-08-31T06:47:33;100943.66;;;13.95;100.00
71907;BME280;59781;52.090;5.030;2023-08-31T06:50:00;100961.75;;;14.10;100.00
71907;BME280;59781;52.090;5.030;2023-08-31T06:52:27;100943.09;;;14.00;100.00
71907;BME280;59781;52.090;5.030;2023-08-31T06:54:53;100954.19;;;13.69;100.00
71907;BME280;59781;52.090;5.030;2023-08-31T06:57:21;100964.97;;;13.84;100.00
71907;BME280;59781;52.090;5.030;2023-08-31T06:59:49;100959.19;;;14.23;100.00
71907;BME280;59781;52.090;5.030;2023-08-31T07:02:15;100953.75;;;14.01;100.00
71907;BME280;59781;52.090;5.030;2023-08-31T07:04:41;100949.81;;;14.04;100.00
71907;BME280;59781;52.090;5.030;2023-08-31T07:07:07;100943.84;;;14.09;100.00
71907;BME280;59781;52.090;5.030;2023-08-31T07:09:34;100948.88;;;14.33;100.00
71907;BME280;59781;52.090;5.030;2023-08-31T07:12:00;100953.03;;;14.14;100.00
71907;BME280;59781;52.090;5.030;2023-08-31T07:14:29;100954.91;;;14.14;100.00
71907;BME280;59781;52.090;5.030;2023-08-31T07:16:55;100955.09;;;14.12;100.00
71907;BME280;59781;52.090;5.030;2023-08-31T07:19:20;100952.19;;;15.62;100.00
71907;BME280;59781;52.090;5.030;2023-08-31T07:21:46;100940.34;;;16.44;100.00
71907;BME280;59781;52.090;5.030;2023-08-31T07:24:13;100928.84;;;16.48;100.00
71907;BME280;59781;52.090;5.030;2023-08-31T07:26:39;100934.63;;;17.51;100.00
71907;BME280;59781;52.090;5.030;2023-08-31T07:29:04;100924.13;;;17.61;100.00
71907;BME280;59781;52.090;5.030;2023-08-31T07:31:31;100927.16;;;16.34;100.00
71907;BME280;59781;52.090;5.030;2023-08-31T07:33:57;100940.78;;;16.67;100.00
71907;BME280;59781;52.090;5.030;2023-08-31T07:36:24;100934.94;;;16.70;100.00
71907;BME280;59781;52.090;5.030;2023-08-31T07:38:50;100935.69;;;16.18;100.00
71907;BME280;59781;52.090;5.030;2023-08-31T07:41:16;100940.13;;;17.18;100.00
71907;BME280;59781;52.090;5.030;2023-08-31T07:43:41;100921.41;;;18.38;100.00
71907;BME280;59781;52.090;5.030;2023-08-31T07:46:07;100930.66;;;18.93;100.00
71907;BME280;59781;52.090;5.030;2023-08-31T07:48:33;100917.28;;;18.60;100.00
71907;BME280;59781;52.090;5.030;2023-08-31T07:50:58;100917.97;;;18.80;100.00
71907;BME280;59781;52.090;5.030;2023-08-31T07:53:24;100917.38;;;18.97;100.00
71907;BME280;59781;52.090;5.030;2023-08-31T07:55:53;100918.34;;;19.09;100.00
71907;BME280;59781;52.090;5.030;2023-08-31T07:58:21;100910.81;;;19.96;100.00
71907;BME280;59781;52.090;5.030;2023-08-31T08:00:47;100924.25;;;20.57;100.00
71907;BME280;59781;52.090;5.030;2023-08-31T08:03:12;100925.53;;;19.03;100.00
71907;BME280;59781;52.090;5.030;2023-08-31T08:05:41;100950.78;;;18.04;100.00
71907;BME280;59781;52.090;5.030;2023-08-31T08:08:07;100943.28;;;18.87;100.00
71907;BME280;59781;52.090;5.030;2023-08-31T08:10:32;100925.72;;;19.82;100.00
71907;BME280;59781;52.090;5.030;2023-08-31T08:12:58;100925.53;;;20.55;100.00
71907;BME280;59781;52.090;5.030;2023-08-31T08:15:24;100929.88;;;20.98;100.00
71907;BME280;59781;52.090;5.030;2023-08-31T08:17:50;100931.06;;;21.13;100.00
71907;BME280;59781;52.090;5.030;2023-08-31T08:20:16;100928.44;;;21.54;100.00
71907;BME280;59781;52.090;5.030;2023-08-31T08:22:42;100930.09;;;22.07;100.00
71907;BME280;59781;52.090;5.030;2023-08-31T08:25:08;100934.66;;;21.89;100.00
71907;BME280;59781;52.090;5.030;2023-08-31T08:27:33;100946.22;;;21.28;100.00
71907;BME280;59781;52.090;5.030;2023-08-31T08:30:00;100934.16;;;21.64;100.00
71907;BME280;59781;52.090;5.030;2023-08-31T08:32:25;100933.88;;;22.05;100.00
71907;BME280;59781;52.090;5.030;2023-08-31T08:34:51;100942.84;;;22.13;100.00
71907;BME280;59781;52.090;5.030;2023-08-31T08:37:17;100927.78;;;22.77;100.00
71907;BME280;59781;52.090;5.030;2023-08-31T08:39:43;100937.66;;;21.36;100.00
71907;BME280;59781;52.090;5.030;2023-08-31T08:42:10;100938.84;;;19.91;100.00
71907;BME280;59781;52.090;5.030;2023-08-31T08:44:36;100945.47;;;19.47;100.00
71907;BME280;59781;52.090;5.030;2023-08-31T08:47:03;100956.19;;;18.80;100.00
71907;BME280;59781;52.090;5.030;2023-08-31T08:49:33;100952.28;;;19.74;100.00
71907;BME280;59781;52.090;5.030;2023-08-31T08:52:01;100959.28;;;19.09;100.00
71907;BME280;59781;52.090;5.030;2023-08-31T08:54:27;100953.59;;;19.72;100.00
71907;BME280;59781;52.090;5.030;2023-08-31T08:56:53;100961.47;;;20.47;100.00
71907;BME280;59781;52.090;5.030;2023-08-31T08:59:19;100944.75;;;20.90;100.00
71907;BME280;59781;52.090;5.030;2023-08-31T09:01:46;100948.34;;;21.26;100.00
71907;BME280;59781;52.090;5.030;2023-08-31T09:04:12;100955.41;;;22.25;100.00
71907;BME280;59781;52.090;5.030;2023-08-31T09:06:38;100951.66;;;22.77;100.00
71907;BME280;59781;52.090;5.030;2023-08-31T09:09:04;100949.53;;;22.50;100.00
71907;BME280;59781;52.090;5.030;2023-08-31T09:11:30;100949.81;;;22.66;100.00
71907;BME280;59781;52.090;5.030;2023-08-31T09:13:57;100958.03;;;23.11;100.00
71907;BME280;59781;52.090;5.030;2023-08-31T09:16:27;100957.03;;;23.39;100.00
71907;BME280;59781;52.090;5.030;2023-08-31T09:18:55;100952.91;;;23.58;100.00
71907;BME280;59781;52.090;5.030;2023-08-31T09:21:22;100951.78;;;23.37;100.00
71907;BME280;59781;52.090;5.030;2023-08-31T09:24:00;100953.28;;;23.84;100.00
71907;BME280;59781;52.090;5.030;2023-08-31T09:26:26;100954.00;;;23.57;100.00
71907;BME280;59781;52.090;5.030;2023-08-31T09:28:52;100952.50;;;24.10;100.00
71907;BME280;59781;52.090;5.030;2023-08-31T09:31:17;100960.00;;;23.54;99.73
71907;BME280;59781;52.090;5.030;2023-08-31T09:33:52;100957.84;;;23.56;96.11
71907;BME280;59781;52.090;5.030;2023-08-31T09:36:20;100960.75;;;23.66;95.86
71907;BME280;59781;52.090;5.030;2023-08-31T09:38:47;100970.75;;;22.10;100.00
71907;BME280;59781;52.090;5.030;2023-08-31T09:41:13;100967.91;;;22.95;100.00
71907;BME280;59781;52.090;5.030;2023-08-31T09:43:43;100966.94;;;21.35;100.00
71907;BME280;59781;52.090;5.030;2023-08-31T09:46:10;100976.53;;;20.19;100.00
71907;BME280;59781;52.090;5.030;2023-08-31T09:48:38;100979.13;;;19.41;100.00
71907;BME280;59781;52.090;5.030;2023-08-31T09:51:07;100976.59;;;21.38;100.00
71907;BME280;59781;52.090;5.030;2023-08-31T09:53:36;100967.66;;;22.35;100.00
71907;BME280;59781;52.090;5.030;2023-08-31T09:56:05;100966.63;;;23.36;100.00
71907;BME280;59781;52.090;5.030;2023-08-31T09:58:32;100964.72;;;23.37;96.69
71907;BME280;59781;52.090;5.030;2023-08-31T10:00:58;100970.03;;;23.60;91.96
71907;BME280;59781;52.090;5.030;2023-08-31T10:03:26;100978.34;;;24.31;96.80
71907;BME280;59781;52.090;5.030;2023-08-31T10:05:54;100971.38;;;24.50;87.40
71907;BME280;59781;52.090;5.030;2023-08-31T10:08:22;100978.91;;;21.81;98.38
71907;BME280;59781;52.090;5.030;2023-08-31T10:10:49;100972.00;;;23.65;86.90
71907;BME280;59781;52.090;5.030;2023-08-31T10:13:16;100975.00;;;23.63;84.20
71907;BME280;59781;52.090;5.030;2023-08-31T10:15:48;100974.59;;;23.55;93.23
71907;BME280;59781;52.090;5.030;2023-08-31T10:18:15;100960.59;;;24.22;80.96
71907;BME280;59781;52.090;5.030;2023-08-31T10:20:44;100966.06;;;23.95;85.27
71907;BME280;59781;52.090;5.030;2023-08-31T10:23:11;100969.59;;;23.13;83.73
71907;BME280;59781;52.090;5.030;2023-08-31T10:28:22;100981.34;;;24.08;81.68
71907;BME280;59781;52.090;5.030;2023-08-31T10:31:17;100979.47;;;23.31;79.95
71907;BME280;59781;52.090;5.030;2023-08-31T10:34:01;100973.44;;;23.89;81.08
71907;BME280;59781;52.090;5.030;2023-08-31T10:36:40;100982.81;;;23.71;79.18
71907;BME280;59781;52.090;5.030;2023-08-31T10:39:14;100975.94;;;23.52;76.98
71907;BME280;59781;52.090;5.030;2023-08-31T10:41:42;100972.75;;;24.26;76.98
71907;BME280;59781;52.090;5.030;2023-08-31T10:44:19;100971.47;;;24.34;69.52
71907;BME280;59781;52.090;5.030;2023-08-31T10:46:46;100977.75;;;23.63;74.28
71907;BME280;59781;52.090;5.030;2023-08-31T10:51:52;100975.06;;;23.68;72.92
71907;BME280;59781;52.090;5.030;2023-08-31T10:54:21;100975.81;;;24.08;73.35
71907;BME280;59781;52.090;5.030;2023-08-31T10:59:40;100973.97;;;24.35;69.51
71907;BME280;59781;52.090;5.030;2023-08-31T11:02:08;100980.63;;;24.39;70.13
71907;BME280;59781;52.090;5.030;2023-08-31T11:07:32;100974.16;;;24.82;65.29
71907;BME280;59781;52.090;5.030;2023-08-31T11:10:26;100980.41;;;24.46;74.01
71907;BME280;59781;52.090;5.030;2023-08-31T11:12:55;100980.38;;;25.00;69.47
71907;BME280;59781;52.090;5.030;2023-08-31T11:15:24;100983.81;;;24.58;72.07
71907;BME280;59781;52.090;5.030;2023-08-31T11:17:53;100977.75;;;24.56;71.94
71907;BME280;59781;52.090;5.030;2023-08-31T11:20:22;100984.88;;;24.03;69.13
71907;BME280;59781;52.090;5.030;2023-08-31T11:22:50;100978.06;;;23.67;76.27
71907;BME280;59781;52.090;5.030;2023-08-31T11:25:18;100979.31;;;24.74;67.46
71907;BME280;59781;52.090;5.030;2023-08-31T11:27:58;100984.19;;;23.52;69.67
71907;BME280;59781;52.090;5.030;2023-08-31T11:30:28;100980.38;;;23.75;73.99
71907;BME280;59781;52.090;5.030;2023-08-31T11:33:02;100973.63;;;23.61;78.76
71907;BME280;59781;52.090;5.030;2023-08-31T11:35:39;100976.03;;;24.23;71.81
71907;BME280;59781;52.090;5.030;2023-08-31T11:38:07;100977.25;;;24.32;74.58
71907;BME280;59781;52.090;5.030;2023-08-31T11:40:33;100976.06;;;25.14;73.35
71907;BME280;59781;52.090;5.030;2023-08-31T11:43:00;100987.09;;;24.06;69.36
71907;BME280;59781;52.090;5.030;2023-08-31T11:45:30;100983.53;;;23.45;68.91
71907;BME280;59781;52.090;5.030;2023-08-31T11:47:57;100982.63;;;24.22;65.49
71907;BME280;59781;52.090;5.030;2023-08-31T11:50:24;100985.13;;;24.01;70.90
71907;BME280;59781;52.090;5.030;2023-08-31T11:52:51;100983.25;;;24.29;71.82
71907;BME280;59781;52.090;5.030;2023-08-31T11:55:19;100984.81;;;24.47;67.36
71907;BME280;59781;52.090;5.030;2023-08-31T11:57:52;100992.91;;;24.85;68.83
71907;BME280;59781;52.090;5.030;2023-08-31T12:00:21;100992.28;;;25.05;63.58
71907;BME280;59781;52.090;5.030;2023-08-31T12:03:00;100991.03;;;24.59;66.71
71907;BME280;59781;52.090;5.030;2023-08-31T12:05:27;100998.13;;;25.14;65.69
71907;BME280;59781;52.090;5.030;2023-08-31T12:07:54;101001.53;;;24.18;64.76
71907;BME280;59781;52.090;5.030;2023-08-31T12:10:21;100994.13;;;23.36;64.04
71907;BME280;59781;52.090;5.030;2023-08-31T12:12:46;100991.66;;;24.39;66.06
71907;BME280;59781;52.090;5.030;2023-08-31T12:15:12;100990.84;;;24.44;65.11
71907;BME280;59781;52.090;5.030;2023-08-31T12:17:38;100996.44;;;24.49;64.73
71907;BME280;59781;52.090;5.030;2023-08-31T12:20:10;100989.59;;;24.83;64.67
71907;BME280;59781;52.090;5.030;2023-08-31T12:22:37;100999.22;;;24.54;68.96
71907;BME280;59781;52.090;5.030;2023-08-31T12:25:03;101002.38;;;24.68;65.31
71907;BME280;59781;52.090;5.030;2023-08-31T12:27:29;100994.88;;;24.09;66.49
71907;BME280;59781;52.090;5.030;2023-08-31T12:29:55;101000.84;;;24.06;65.84
71907;BME280;59781;52.090;5.030;2023-08-31T12:32:22;101004.28;;;24.18;66.06
71907;BME280;59781;52.090;5.030;2023-08-31T12:34:48;101001.94;;;24.05;69.26
71907;BME280;59781;52.090;5.030;2023-08-31T12:37:14;101001.22;;;24.37;68.15
71907;BME280;59781;52.090;5.030;2023-08-31T12:39:40;100991.13;;;24.69;67.58
71907;BME280;59781;52.090;5.030;2023-08-31T12:42:07;100995.75;;;24.64;66.74
71907;BME280;59781;52.090;5.030;2023-08-31T12:44:33;100995.06;;;25.10;65.93
71907;BME280;59781;52.090;5.030;2023-08-31T12:46:58;100993.34;;;24.72;68.83
71907;BME280;59781;52.090;5.030;2023-08-31T12:49:24;101001.63;;;22.90;71.89
71907;BME280;59781;52.090;5.030;2023-08-31T12:51:50;101009.41;;;22.65;69.20
71907;BME280;59781;52.090;5.030;2023-08-31T12:54:17;101010.94;;;22.04;69.83
71907;BME280;59781;52.090;5.030;2023-08-31T12:56:43;101019.66;;;22.13;70.60
71907;BME280;59781;52.090;5.030;2023-08-31T12:59:09;101014.63;;;23.12;67.14
71907;BME280;59781;52.090;5.030;2023-08-31T13:01:34;101008.63;;;24.09;66.79
71907;BME280;59781;52.090;5.030;2023-08-31T13:04:01;101013.88;;;24.11;68.29